Decoded Metar for KDHN (DOTHAN in AL, USA) (IATA:DHN) | Meteo·Mobile Aviation Weather
aviador You're here:

KDHN Decoded Metar

DOTHAN in AL, USA
Report Time2018-08-22 06:53:00
UTC Time2018-08-22 07:00:24
Flight Rules ifr IFR
Wind250° at 07 kt
W.Decomp.*RWY 32: 2.7 kt HW 6.4 kt LCW
RWY 18: 2.0 kt HW 6.7 kt RCW
W.Rank250° ranks 27
Current wind is above 250° avg. (6.2)
Visibility9999 m
Phenomena:N/A
Clouds:Overcast 006 Hf
Expected CloudBase > 800 ft AGL from Temp-Dew spread
Ceiling600 ft
Temp26°C (ISA +12)
Dew Point24°C (89% RH)
QNH1018 hPa
Density Alt1,952 ft
Elevation371 ft
Report Wrong Elevation
Raw Report
METAR KDHN 220653Z AUTO 25007KT 8SM OVC006 26/24 A3005 RMK AO2 CIG
004V008 SLP170 T02610244=

Extra information for KDHN:More info

Metar Taf Metar & Taf Last 4 Metars F.Rules Stats Wind Profile Meteogram Temp Stats Airport Information Weather charts Add Link Nearby VenuesMetar ALERT Operation Metar Decoded Social comments

AIRNAV info for KDHN